North Charleston, South Carolina
Current Conditions -  °F | °C
As of 1:56 PM on Thursday 18 Dec 2014 (Local Time) from KCHS Reporting Station
Few Clouds Few Clouds  
Wind Chill: 62°   Ceiling: Unl
Heat Index: 62°   Visibility: 10mi
Dew Point: 41°   Wind: 5mph
Humidity: 46%   Direction: 130°SE
Pressure: 30.08"   Gusts: NA
Location:  32.88°N, 80.01°W
Report Text: KCHS 181856Z 13004KT 10SM FEW200 17/05 A3008 RMK AO2 SLP186 T01670050
Loading
Personal Weather Stations






























Interactive Weather Map New forecast layout! Learn more

10-Day Weather Forecast

Advertisements
Track Severe Weather on mobile